NCAR-RAP Real-Time Weather Data

Output produced by METARs form (26 September 2017  14:30 UTC)
found at http://weather.rap.ucar.edu/surface/
 
Conditions at: KPGD observed 26 September 2017  14:10 UTC
Temperature: 27.8°C (82°F)
Dewpoint: 25.0°C (77°F) [RH = 85%]
Pressure (altimeter): 29.95 inches Hg (1014.3 mb)
Winds: variable direction winds at 5 MPH (4 knots; 2.1 m/s)
Visibility: 10 or more miles (16+ km)
Ceiling: at least 12,000 feet AGL
Clouds: scattered clouds at 600 feet AGL
Present Weather: no significant weather observed at this time
KPGD 261410Z VRB04KT 10SM SCT006 28/25 A2995 RMK AO2 T02780250

Conditions at: KPGD observed 26 September 2017  14:00 UTC
Temperature: 26.7°C (80°F)
Dewpoint: 25.0°C (77°F) [RH = 90%]
Pressure (altimeter): 29.95 inches Hg (1014.3 mb)
Winds: from the E (90 degrees) at 6 MPH (5 knots; 2.6 m/s)
Visibility: 10 or more miles (16+ km)
Ceiling: 600 feet AGL
Clouds: broken clouds at 600 feet AGL
Present Weather: no significant weather observed at this time
KPGD 261400Z 09005KT 10SM BKN006 27/25 A2995 RMK AO2 T02670250

Conditions at: KPGD observed 26 September 2017  13:53 UTC
Temperature: 26.7°C (80°F)
Dewpoint: 25.0°C (77°F) [RH = 90%]
Pressure (altimeter): 29.95 inches Hg (1014.3 mb)
[Sea-level pressure: 1014.3 mb]
Winds: from the E (90 degrees) at 7 MPH (6 knots; 3.1 m/s)
Visibility: 10 or more miles (16+ km)
Ceiling: 400 feet AGL
Clouds: broken clouds at 400 feet AGL
Present Weather: no significant weather observed at this time
KPGD 261353Z 09006KT 10SM BKN004 27/25 A2995 RMK AO2 SLP143 T02670250

Conditions at: KPGD observed 26 September 2017  13:49 UTC
Temperature: 27.0°C (81°F)
Dewpoint: 25.0°C (77°F) [RH = 89%]
Pressure (altimeter): 29.95 inches Hg (1014.3 mb)
Winds: from the ENE (60 degrees) at 8 MPH (7 knots; 3.6 m/s)
Visibility: 10 or more miles (16+ km)
Ceiling: 400 feet AGL
Clouds: overcast cloud deck at 400 feet AGL
Present Weather: no significant weather observed at this time
KPGD 261349Z 06007KT 10SM OVC004 27/25 A2995 RMK AO2

Conditions at: KPGD observed 26 September 2017  13:37 UTC
Temperature: 26.1°C (79°F)
Dewpoint: 24.4°C (76°F) [RH = 90%]
Pressure (altimeter): 29.95 inches Hg (1014.3 mb)
Winds: from the ENE (70 degrees) at 7 MPH (6 knots; 3.1 m/s)
Visibility: 6 miles (10 km)
Ceiling: 300 feet AGL
Clouds: overcast cloud deck at 300 feet AGL
Present Weather: BR  (mist)
KPGD 261337Z 07006KT 6SM BR OVC003 26/24 A2995 RMK AO2 T02610244

Conditions at: KPGD observed 26 September 2017  12:53 UTC
Temperature: 25.0°C (77°F)
Dewpoint: 24.4°C (76°F) [RH = 96%]
Pressure (altimeter): 29.94 inches Hg (1014.0 mb)
[Sea-level pressure: 1014.0 mb]
Winds: from the NE (40 degrees) at 3 MPH (3 knots; 1.6 m/s)
Visibility: 2.50 miles (4.02 km)
Ceiling: 200 feet AGL
Clouds: overcast cloud deck at 200 feet AGL
Present Weather: BR  (mist)
KPGD 261253Z 04003KT 2 1/2SM BR OVC002 25/24 A2994 RMK AO2 SLP140 T02500244

Conditions at: KPGD observed 26 September 2017  12:01 UTC
Temperature: 24.4°C (76°F)
Dewpoint: 23.9°C (75°F) [RH = 97%]
Pressure (altimeter): 29.92 inches Hg (1013.3 mb)
Winds: from the NE (40 degrees) at 5 MPH (4 knots; 2.1 m/s)
Visibility: 1.50 miles (2.41 km)
Ceiling: 300 feet AGL
Clouds: broken clouds at 300 feet AGL
Present Weather: BR  (mist)
KPGD 261201Z 04004KT 1 1/2SM BR BKN003 24/24 A2992 RMK AO2 T02440239

Conditions at: KPGD observed 26 September 2017  11:53 UTC
Temperature: 24.4°C (76°F)
Dewpoint: 23.9°C (75°F) [RH = 97%]
Pressure (altimeter): 29.92 inches Hg (1013.3 mb)
[Sea-level pressure: 1013.3 mb]
Winds: from the NE (40 degrees) at 3 MPH (3 knots; 1.6 m/s)
Visibility: 4 miles (6 km)
Ceiling: 500 feet AGL
Clouds: broken clouds at 500 feet AGL
Present Weather: BR  (mist)
KPGD 261153Z 04003KT 4SM BR BKN005 24/24 A2992 RMK AO2 SLP133 T02440239 10267 20239 53016

Conditions at: KPGD observed 26 September 2017  11:35 UTC
Temperature: 23.9°C (75°F)
Dewpoint: 23.3°C (74°F) [RH = 96%]
Pressure (altimeter): 29.92 inches Hg (1013.3 mb)
Winds: calm
Visibility: 9 miles (14 km)
Ceiling: at least 12,000 feet AGL
Clouds: scattered clouds at 500 feet AGL
Present Weather: no significant weather observed at this time
KPGD 261135Z 00000KT 9SM SCT005 24/23 A2992 RMK AO2 T02390233

Conditions at: KPGD observed 26 September 2017  10:53 UTC
Temperature: 24.4°C (76°F)
Dewpoint: 22.8°C (73°F) [RH = 91%]
Pressure (altimeter): 29.90 inches Hg (1012.6 mb)
[Sea-level pressure: 1012.7 mb]
Winds: from the N (350 degrees) at 3 MPH (3 knots; 1.6 m/s)
Visibility: 10 or more miles (16+ km)
Ceiling: at least 12,000 feet AGL
Clouds: sky clear below 12,000 feet AGL
Present Weather: automated observation with no human augmentation;
there may or may not be significant weather present at this time
KPGD 261053Z AUTO 35003KT 10SM CLR 24/23 A2990 RMK AO2 SLP127 T02440228

Conditions at: KPGD observed 26 September 2017  09:53 UTC
Temperature: 25.0°C (77°F)
Dewpoint: 22.8°C (73°F) [RH = 88%]
Pressure (altimeter): 29.89 inches Hg (1012.3 mb)
[Sea-level pressure: 1012.1 mb]
Winds: from the NNW (340 degrees) at 3 MPH (3 knots; 1.6 m/s)
Visibility: 10 or more miles (16+ km)
Ceiling: at least 12,000 feet AGL
Clouds: sky clear below 12,000 feet AGL
Present Weather: automated observation with no human augmentation;
there may or may not be significant weather present at this time
KPGD 260953Z AUTO 34003KT 10SM CLR 25/23 A2989 RMK AO2 SLP121 T02500228

Conditions at: KPGD observed 26 September 2017  08:53 UTC
Temperature: 25.6°C (78°F)
Dewpoint: 22.8°C (73°F) [RH = 85%]
Pressure (altimeter): 29.88 inches Hg (1011.9 mb)
[Sea-level pressure: 1011.7 mb]
Winds: from the NW (320 degrees) at 3 MPH (3 knots; 1.6 m/s)
Visibility: 10 or more miles (16+ km)
Ceiling: at least 12,000 feet AGL
Clouds: sky clear below 12,000 feet AGL
Present Weather: automated observation with no human augmentation;
there may or may not be significant weather present at this time
KPGD 260853Z AUTO 32003KT 10SM CLR 26/23 A2988 RMK AO2 SLP117 T02560228 58006

Conditions at: KPGD observed 26 September 2017  07:53 UTC
Temperature: 25.6°C (78°F)
Dewpoint: 23.3°C (74°F) [RH = 87%]
Pressure (altimeter): 29.88 inches Hg (1011.9 mb)
[Sea-level pressure: 1011.8 mb]
Winds: from the WNW (300 degrees) at 5 MPH (4 knots; 2.1 m/s)
Visibility: 10 or more miles (16+ km)
Ceiling: at least 12,000 feet AGL
Clouds: sky clear below 12,000 feet AGL
Present Weather: automated observation with no human augmentation;
there may or may not be significant weather present at this time
KPGD 260753Z AUTO 30004KT 10SM CLR 26/23 A2988 RMK AO2 SLP118 T02560233

Conditions at: KPGD observed 26 September 2017  06:53 UTC
Temperature: 26.7°C (80°F)
Dewpoint: 24.4°C (76°F) [RH = 87%]
Pressure (altimeter): 29.89 inches Hg (1012.3 mb)
[Sea-level pressure: 1012.3 mb]
Winds: from the N (360 degrees) at 3 MPH (3 knots; 1.6 m/s)
Visibility: 10 or more miles (16+ km)
Ceiling: 3500 feet AGL
Clouds: broken clouds at 3500 feet AGL
broken clouds at 5000 feet AGL
overcast cloud deck at 7000 feet AGL
Present Weather: automated observation with no human augmentation;
there may or may not be significant weather present at this time
KPGD 260653Z AUTO 36003KT 10SM BKN035 BKN050 OVC070 27/24 A2989 RMK AO2 SLP123 T02670244

Conditions at: KPGD observed 26 September 2017  05:53 UTC
Temperature: 26.7°C (80°F)
Dewpoint: 24.4°C (76°F) [RH = 87%]
Pressure (altimeter): 29.89 inches Hg (1012.3 mb)
[Sea-level pressure: 1012.3 mb]
Winds: from the NW (320 degrees) at 6 MPH (5 knots; 2.6 m/s)
Visibility: 10 or more miles (16+ km)
Ceiling: at least 12,000 feet AGL
Clouds: scattered clouds at 4600 feet AGL
Present Weather: automated observation with no human augmentation;
there may or may not be significant weather present at this time
KPGD 260553Z AUTO 32005KT 10SM SCT046 27/24 A2989 RMK AO2 SLP123 T02670244 10289 20267 56002

Conditions at: KPGD observed 26 September 2017  04:53 UTC
Temperature: 26.7°C (80°F)
Dewpoint: 25.0°C (77°F) [RH = 90%]
Pressure (altimeter): 29.89 inches Hg (1012.3 mb)
[Sea-level pressure: 1012.3 mb]
Winds: from the NNW (330 degrees) at 6 MPH (5 knots; 2.6 m/s)
Visibility: 10 or more miles (16+ km)
Ceiling: 4800 feet AGL
Clouds: broken clouds at 4800 feet AGL
broken clouds at 5500 feet AGL
Present Weather: automated observation with no human augmentation;
there may or may not be significant weather present at this time
KPGD 260453Z AUTO 33005KT 10SM BKN048 BKN055 27/25 A2989 RMK AO2 SLP123 T02670250 403390244

Conditions at: KPGD observed 26 September 2017  03:53 UTC
Temperature: 26.7°C (80°F)
Dewpoint: 25.0°C (77°F) [RH = 90%]
Pressure (altimeter): 29.90 inches Hg (1012.6 mb)
[Sea-level pressure: 1012.4 mb]
Winds: from the NNW (330 degrees) at 6 MPH (5 knots; 2.6 m/s)
Visibility: 10 or more miles (16+ km)
Ceiling: at least 12,000 feet AGL
Clouds: sky clear below 12,000 feet AGL
Present Weather: automated observation with no human augmentation;
there may or may not be significant weather present at this time
KPGD 260353Z AUTO 33005KT 10SM CLR 27/25 A2990 RMK AO2 SLP124 T02670250

Conditions at: KPGD observed 26 September 2017  02:53 UTC
Temperature: 27.2°C (81°F)
Dewpoint: 25.0°C (77°F) [RH = 88%]
Pressure (altimeter): 29.90 inches Hg (1012.6 mb)
[Sea-level pressure: 1012.5 mb]
Winds: calm
Visibility: 10 or more miles (16+ km)
Ceiling: at least 12,000 feet AGL
Clouds: scattered clouds at 5500 feet AGL
Present Weather: automated observation with no human augmentation;
there may or may not be significant weather present at this time
KPGD 260253Z AUTO 00000KT 10SM SCT055 27/25 A2990 RMK AO2 SLP125 T02720250 51010

Conditions at: KPGD observed 26 September 2017  01:53 UTC
Temperature: 27.8°C (82°F)
Dewpoint: 24.4°C (76°F) [RH = 82%]
Pressure (altimeter): 29.90 inches Hg (1012.6 mb)
[Sea-level pressure: 1012.4 mb]
Winds: from the W (280 degrees) at 5 MPH (4 knots; 2.1 m/s)
Visibility: 10 or more miles (16+ km)
Ceiling: at least 12,000 feet AGL
Clouds: sky clear below 12,000 feet AGL
Present Weather: automated observation with no human augmentation;
there may or may not be significant weather present at this time
KPGD 260153Z AUTO 28004KT 10SM CLR 28/24 A2990 RMK AO2 SLP124 T02780244

Conditions at: KPGD observed 26 September 2017  00:53 UTC
Temperature: 27.2°C (81°F)
Dewpoint: 23.9°C (75°F) [RH = 82%]
Pressure (altimeter): 29.88 inches Hg (1011.9 mb)
[Sea-level pressure: 1011.9 mb]
Winds: calm
Visibility: 10 or more miles (16+ km)
Ceiling: at least 12,000 feet AGL
Clouds: few clouds at 4700 feet AGL
Present Weather: no significant weather observed at this time
KPGD 260053Z 00000KT 10SM FEW047 27/24 A2988 RMK AO2 SLP119 T02720239

Conditions at: KPGD observed 26 September 2017  00:12 UTC
Temperature: 27.8°C (82°F)
Dewpoint: 24.4°C (76°F) [RH = 82%]
Pressure (altimeter): 29.87 inches Hg (1011.6 mb)
Winds: from the ENE (70 degrees) at 5 MPH (4 knots; 2.1 m/s)
Visibility: 10 or more miles (16+ km)
Ceiling: at least 12,000 feet AGL
Clouds: scattered clouds at 5500 feet AGL
Present Weather: no significant weather observed at this time
KPGD 260012Z 07004KT 10SM SCT055 28/24 A2987 RMK AO2 LTG DSNT E T02780244

Conditions at: KPGD observed 25 September 2017  23:53 UTC
Temperature: 28.9°C (84°F)
Dewpoint: 23.9°C (75°F) [RH = 74%]
Pressure (altimeter): 29.87 inches Hg (1011.6 mb)
[Sea-level pressure: 1011.5 mb]
Winds: from the NW (310 degrees) at 3 MPH (3 knots; 1.6 m/s)
Visibility: 10 or more miles (16+ km)
Ceiling: at least 12,000 feet AGL
Clouds: scattered clouds at 5500 feet AGL
Present Weather: VCTS  (thunderstorm in vicinity)
KPGD 252353Z 31003KT 10SM VCTS SCT055 29/24 A2987 RMK AO2 SLP115 T02890239 10339 20289 51009

Conditions at: KPGD observed 25 September 2017  23:48 UTC
Temperature: 29.0°C (84°F)
Dewpoint: 24.0°C (75°F) [RH = 74%]
Pressure (altimeter): 29.87 inches Hg (1011.6 mb)
Winds: from the WNW (300 degrees) at 6 MPH (5 knots; 2.6 m/s)
Visibility: 10 or more miles (16+ km)
Ceiling: at least 12,000 feet AGL
Clouds: scattered clouds at 5500 feet AGL
Present Weather: no significant weather observed at this time
KPGD 252348Z 30005KT 10SM SCT055 29/24 A2987 RMK AO2

Conditions at: KPGD observed 25 September 2017  23:03 UTC
Temperature: 29.4°C (85°F)
Dewpoint: 23.9°C (75°F) [RH = 72%]
Pressure (altimeter): 29.85 inches Hg (1010.9 mb)
Winds: from the WNW (290 degrees) at 7 MPH (6 knots; 3.1 m/s)
Visibility: 10 or more miles (16+ km)
Ceiling: at least 12,000 feet AGL
Clouds: sky clear below 12,000 feet AGL
Present Weather: VCTS  (thunderstorm in vicinity)
KPGD 252303Z 29006KT 10SM VCTS CLR 29/24 A2985 RMK AO2 LTG DSNT N AND NE T02940239

Conditions at: KPGD observed 25 September 2017  22:53 UTC
Temperature: 29.4°C (85°F)
Dewpoint: 23.9°C (75°F) [RH = 72%]
Pressure (altimeter): 29.85 inches Hg (1010.9 mb)
[Sea-level pressure: 1010.8 mb]
Winds: from the W (280 degrees) at 8 MPH (7 knots; 3.6 m/s)
Visibility: 10 or more miles (16+ km)
Ceiling: at least 12,000 feet AGL
Clouds: sky clear below 12,000 feet AGL
Present Weather: no significant weather observed at this time
KPGD 252253Z 28007KT 10SM CLR 29/24 A2985 RMK AO2 LTG DSNT N AND NE SLP108 T02940239

Conditions at: KPGD observed 25 September 2017  21:53 UTC
Temperature: 30.6°C (87°F)
Dewpoint: 24.4°C (76°F) [RH = 70%]
Pressure (altimeter): 29.84 inches Hg (1010.6 mb)
[Sea-level pressure: 1010.6 mb]
Winds: from the W (270 degrees) at 9 MPH (8 knots; 4.2 m/s)
Visibility: 10 or more miles (16+ km)
Ceiling: at least 12,000 feet AGL
Clouds: few clouds at 2900 feet AGL
Present Weather: no significant weather observed at this time
KPGD 252153Z 27008KT 10SM FEW029 31/24 A2984 RMK AO2 SLP106 T03060244

Conditions at: KPGD observed 25 September 2017  20:53 UTC
Temperature: 32.8°C (91°F)
Dewpoint: 22.8°C (73°F) [RH = 56%]
Pressure (altimeter): 29.83 inches Hg (1010.2 mb)
[Sea-level pressure: 1010.2 mb]
Winds: from the W (280 degrees) at 8 MPH (7 knots; 3.6 m/s)
Visibility: 10 or more miles (16+ km)
Ceiling: at least 12,000 feet AGL
Clouds: sky clear below 12,000 feet AGL
Present Weather: no significant weather observed at this time
KPGD 252053Z 28007KT 10SM CLR 33/23 A2983 RMK AO2 SLP102 T03280228 56021

Conditions at: KPGD observed 25 September 2017  19:53 UTC
Temperature: 32.8°C (91°F)
Dewpoint: 22.8°C (73°F) [RH = 56%]
Pressure (altimeter): 29.84 inches Hg (1010.6 mb)
[Sea-level pressure: 1010.3 mb]
Winds: from the WNW (290 degrees) at 8 MPH (7 knots; 3.6 m/s)
Visibility: 10 or more miles (16+ km)
Ceiling: 4600 feet AGL
Clouds: scattered clouds at 4000 feet AGL
broken clouds at 4600 feet AGL
Present Weather: no significant weather observed at this time
KPGD 251953Z 29007KT 10SM SCT040 BKN046 33/23 A2984 RMK AO2 SLP103 T03280228

Conditions at: KPGD observed 25 September 2017  18:53 UTC
Temperature: 32.8°C (91°F)
Dewpoint: 22.8°C (73°F) [RH = 56%]
Pressure (altimeter): 29.86 inches Hg (1011.3 mb)
[Sea-level pressure: 1011.2 mb]
Winds: calm
Visibility: 10 or more miles (16+ km)
Ceiling: at least 12,000 feet AGL
Clouds: sky clear below 12,000 feet AGL
Present Weather: no significant weather observed at this time
KPGD 251853Z 00000KT 10SM CLR 33/23 A2986 RMK AO2 SLP112 T03280228

Conditions at: KPGD observed 25 September 2017  17:53 UTC
Temperature: 31.1°C (88°F)
Dewpoint: 22.8°C (73°F) [RH = 61%]
Pressure (altimeter): 29.89 inches Hg (1012.3 mb)
[Sea-level pressure: 1012.3 mb]
Winds: calm
Visibility: 10 or more miles (16+ km)
Ceiling: 3600 feet AGL
Clouds: broken clouds at 3600 feet AGL
Present Weather: no significant weather observed at this time
KPGD 251753Z 00000KT 10SM BKN036 31/23 A2989 RMK AO2 SLP123 T03110228 10322 20244 58014

Conditions at: KPGD observed 25 September 2017  16:53 UTC
Temperature: 30.6°C (87°F)
Dewpoint: 23.3°C (74°F) [RH = 65%]
Pressure (altimeter): 29.91 inches Hg (1013.0 mb)
[Sea-level pressure: 1012.9 mb]
Winds: from the WNW (300 degrees) at 5 MPH (4 knots; 2.1 m/s)
Visibility: 10 or more miles (16+ km)
Ceiling: at least 12,000 feet AGL
Clouds: scattered clouds at 3100 feet AGL
Present Weather: no significant weather observed at this time
KPGD 251653Z 30004KT 10SM SCT031 31/23 A2991 RMK AO2 SLP129 T03060233

Conditions at: KPGD observed 25 September 2017  15:53 UTC
Temperature: 30.6°C (87°F)
Dewpoint: 23.3°C (74°F) [RH = 65%]
Pressure (altimeter): 29.93 inches Hg (1013.6 mb)
[Sea-level pressure: 1013.4 mb]
Winds: from the ESE (120 degrees) at 3 MPH (3 knots; 1.6 m/s)
Visibility: 10 or more miles (16+ km)
Ceiling: at least 12,000 feet AGL
Clouds: sky clear below 12,000 feet AGL
Present Weather: no significant weather observed at this time
KPGD 251553Z 12003KT 10SM CLR 31/23 A2993 RMK AO2 SLP134 T03060233

Conditions at: KPGD observed 25 September 2017  14:53 UTC
Temperature: 29.4°C (85°F)
Dewpoint: 24.4°C (76°F) [RH = 75%]
Pressure (altimeter): 29.93 inches Hg (1013.6 mb)
[Sea-level pressure: 1013.7 mb]
Winds: calm
Visibility: 10 or more miles (16+ km)
Ceiling: at least 12,000 feet AGL
Clouds: few clouds at 3000 feet AGL
Present Weather: no significant weather observed at this time
KPGD 251453Z 00000KT 10SM FEW030 29/24 A2993 RMK AO2 SLP137 T02940244 51007